createdAt,value
2023-06-11T00:00:03.556Z,16.80
2023-06-11T00:01:08.481Z,16.80
2023-06-11T00:02:03.423Z,16.80
2023-06-11T00:03:03.227Z,16.80
2023-06-11T00:04:03.103Z,16.70
2023-06-11T00:05:03.158Z,16.70
2023-06-11T00:06:03.391Z,16.70
2023-06-11T00:07:03.189Z,16.70
2023-06-11T00:08:02.995Z,16.70
2023-06-11T00:09:03.602Z,16.70
2023-06-11T00:10:02.962Z,16.60
2023-06-11T00:11:03.647Z,16.60
2023-06-11T00:12:02.719Z,16.60
2023-06-11T00:13:02.669Z,16.60
2023-06-11T00:14:02.835Z,16.60
2023-06-11T00:15:03.519Z,16.60
2023-06-11T00:16:03.194Z,16.50
2023-06-11T00:17:03.364Z,16.50
2023-06-11T00:18:02.999Z,16.50
2023-06-11T00:19:02.822Z,16.50
2023-06-11T00:20:03.389Z,16.50
2023-06-11T00:21:03.020Z,16.50
2023-06-11T00:22:03.145Z,16.50
2023-06-11T00:23:03.200Z,16.40
2023-06-11T00:24:02.879Z,16.40
2023-06-11T00:25:02.683Z,16.40
2023-06-11T00:26:03.362Z,16.40
2023-06-11T00:27:03.148Z,16.40
2023-06-11T00:28:03.058Z,16.30
2023-06-11T00:29:08.290Z,16.30
2023-06-11T00:30:03.417Z,16.30
2023-06-11T00:31:02.922Z,16.30
2023-06-11T00:32:03.109Z,16.30
2023-06-11T00:33:03.423Z,16.30
2023-06-11T00:34:02.676Z,16.30
2023-06-11T00:35:03.347Z,16.30
2023-06-11T00:36:03.463Z,16.20
2023-06-11T00:37:03.231Z,16.20
2023-06-11T00:38:03.331Z,16.20
2023-06-11T00:39:03.096Z,16.20
2023-06-11T00:40:03.204Z,16.20
2023-06-11T00:41:02.867Z,16.20
2023-06-11T00:42:02.660Z,16.20
2023-06-11T00:43:03.410Z,16.20
2023-06-11T00:44:03.207Z,16.20
2023-06-11T00:45:02.810Z,16.20
2023-06-11T00:46:03.125Z,16.10
2023-06-11T00:47:03.158Z,16.10
2023-06-11T00:48:03.046Z,16.10
2023-06-11T00:49:02.790Z,16.10
2023-06-11T00:50:08.462Z,16.10
2023-06-11T00:51:03.418Z,16.10
2023-06-11T00:52:03.025Z,16.10
2023-06-11T00:53:03.501Z,16.00
2023-06-11T00:54:03.044Z,16.00
2023-06-11T00:55:03.052Z,15.90
2023-06-11T00:56:03.077Z,15.90
2023-06-11T00:57:03.234Z,15.90
2023-06-11T00:58:03.210Z,15.90
2023-06-11T00:59:02.967Z,15.90
2023-06-11T01:00:03.620Z,15.80
2023-06-11T01:01:03.181Z,15.80
2023-06-11T01:02:03.370Z,15.80
2023-06-11T01:03:03.026Z,15.80
2023-06-11T01:04:03.140Z,15.80
2023-06-11T01:05:03.125Z,15.80
2023-06-11T01:06:03.188Z,15.80
2023-06-11T01:07:02.925Z,15.80
2023-06-11T01:08:03.617Z,15.80
2023-06-11T01:09:02.828Z,15.80
2023-06-11T01:10:03.381Z,15.80
2023-06-11T01:11:03.060Z,15.70
2023-06-11T01:12:02.676Z,15.70
2023-06-11T01:13:03.440Z,15.70
2023-06-11T01:14:03.070Z,15.70
2023-06-11T01:15:02.790Z,15.70
2023-06-11T01:16:03.347Z,15.70
2023-06-11T01:17:03.168Z,15.70
2023-06-11T01:18:03.170Z,15.70
2023-06-11T01:19:02.863Z,15.70
2023-06-11T01:20:03.040Z,15.70
2023-06-11T01:21:02.806Z,15.60
2023-06-11T01:22:03.433Z,15.60
2023-06-11T01:23:03.755Z,15.60
2023-06-11T01:24:03.655Z,15.60
2023-06-11T01:25:03.382Z,15.60
2023-06-11T01:26:02.953Z,15.60
2023-06-11T01:27:03.646Z,15.60
2023-06-11T01:28:03.140Z,15.60
2023-06-11T01:29:02.977Z,15.60
2023-06-11T01:30:02.651Z,15.60
2023-06-11T01:31:02.800Z,15.60
2023-06-11T01:32:03.746Z,15.60
2023-06-11T01:33:03.029Z,15.60
2023-06-11T01:34:03.541Z,15.60
2023-06-11T01:35:03.728Z,15.60
2023-06-11T01:36:03.094Z,15.60
2023-06-11T01:37:02.663Z,15.60
2023-06-11T01:38:02.802Z,15.60
2023-06-11T01:39:03.350Z,15.60
2023-06-11T01:40:03.073Z,15.50
2023-06-11T01:41:02.638Z,15.50
2023-06-11T01:42:02.800Z,15.50
2023-06-11T01:43:02.981Z,15.50
2023-06-11T01:44:02.645Z,15.50
2023-06-11T01:45:03.281Z,15.50
2023-06-11T01:46:02.970Z,15.50
2023-06-11T01:47:08.786Z,15.50
2023-06-11T01:48:03.735Z,15.50
2023-06-11T01:49:03.163Z,15.50
2023-06-11T01:50:03.241Z,15.40
2023-06-11T01:51:02.847Z,15.40
2023-06-11T01:52:03.457Z,15.40
2023-06-11T01:53:03.103Z,15.40
2023-06-11T01:54:02.709Z,15.40
2023-06-11T01:55:02.830Z,15.40
2023-06-11T01:56:03.565Z,15.40
2023-06-11T01:57:03.076Z,15.30
2023-06-11T01:58:03.175Z,15.30
2023-06-11T01:59:02.763Z,15.30
2023-06-11T02:00:03.409Z,15.30
2023-06-11T02:01:03.035Z,15.30
2023-06-11T02:02:03.353Z,15.30
2023-06-11T02:03:03.660Z,15.30
2023-06-11T02:04:03.173Z,15.20
2023-06-11T02:05:02.694Z,15.20
2023-06-11T02:06:03.313Z,15.20
2023-06-11T02:07:02.939Z,15.20
2023-06-11T02:08:03.551Z,15.20
2023-06-11T02:09:02.690Z,15.20
2023-06-11T02:10:03.413Z,15.20
2023-06-11T02:11:03.222Z,15.20
2023-06-11T02:12:03.358Z,15.10
2023-06-11T02:13:03.554Z,15.10
2023-06-11T02:14:02.639Z,15.10
2023-06-11T02:15:03.345Z,15.10
2023-06-11T02:16:03.061Z,15.10
2023-06-11T02:17:03.273Z,15.10
2023-06-11T02:18:02.899Z,15.00
2023-06-11T02:19:03.503Z,15.00
2023-06-11T02:20:03.638Z,15.00
2023-06-11T02:21:03.255Z,15.00
2023-06-11T02:22:03.333Z,15.00
2023-06-11T02:23:03.521Z,15.00
2023-06-11T02:24:03.205Z,15.00
2023-06-11T02:25:03.418Z,15.00
2023-06-11T02:26:03.216Z,15.00
2023-06-11T02:27:03.401Z,14.90
2023-06-11T02:28:02.909Z,14.90
2023-06-11T02:29:02.859Z,14.90
2023-06-11T02:30:03.512Z,14.90
2023-06-11T02:31:03.053Z,14.90
2023-06-11T02:32:02.691Z,14.90
2023-06-11T02:33:03.526Z,14.90
2023-06-11T02:34:03.475Z,14.90
2023-06-11T02:35:03.539Z,14.80
2023-06-11T02:36:03.475Z,14.80
2023-06-11T02:37:03.243Z,14.80
2023-06-11T02:38:02.890Z,14.80
2023-06-11T02:39:02.965Z,14.80
2023-06-11T02:40:02.979Z,14.80
2023-06-11T02:41:03.600Z,14.80
2023-06-11T02:42:03.308Z,14.80
2023-06-11T02:43:03.419Z,14.70
2023-06-11T02:44:02.931Z,14.70
2023-06-11T02:45:02.653Z,14.70
2023-06-11T02:46:03.012Z,14.70
2023-06-11T02:47:03.404Z,14.70
2023-06-11T02:48:03.351Z,14.70
2023-06-11T02:49:03.533Z,14.70
2023-06-11T02:50:03.269Z,14.70
2023-06-11T02:51:03.507Z,14.60
2023-06-11T02:52:03.388Z,14.60
2023-06-11T02:53:03.351Z,14.60
2023-06-11T02:54:03.075Z,14.60
2023-06-11T02:55:02.646Z,14.60
2023-06-11T02:56:02.789Z,14.60
2023-06-11T02:57:03.352Z,14.60
2023-06-11T02:58:02.984Z,14.60
2023-06-11T02:59:02.676Z,14.50
2023-06-11T03:00:02.653Z,14.50
2023-06-11T03:01:03.412Z,14.50
2023-06-11T03:02:03.538Z,14.50
2023-06-11T03:03:03.114Z,14.50
2023-06-11T03:04:03.347Z,14.50
2023-06-11T03:05:03.253Z,14.50
2023-06-11T03:06:02.820Z,14.50
2023-06-11T03:07:02.932Z,14.50
2023-06-11T03:08:02.887Z,14.50
2023-06-11T03:09:02.992Z,14.50
2023-06-11T03:10:02.940Z,14.50
2023-06-11T03:11:02.636Z,14.50
2023-06-11T03:12:02.810Z,14.40
2023-06-11T03:13:03.339Z,14.40
2023-06-11T03:14:03.619Z,14.40
2023-06-11T03:15:02.748Z,14.40
2023-06-11T03:16:02.819Z,14.40
2023-06-11T03:17:03.422Z,14.40
2023-06-11T03:18:03.073Z,14.40
2023-06-11T03:19:03.315Z,14.40
2023-06-11T03:20:02.904Z,14.40
2023-06-11T03:21:02.669Z,14.30
2023-06-11T03:22:03.068Z,14.30
2023-06-11T03:23:03.148Z,14.30
2023-06-11T03:24:03.248Z,14.30
2023-06-11T03:25:03.117Z,14.30
2023-06-11T03:26:02.923Z,14.30
2023-06-11T03:27:02.926Z,14.30
2023-06-11T03:28:03.692Z,14.30
2023-06-11T03:29:02.705Z,14.30
2023-06-11T03:30:03.377Z,14.30
2023-06-11T03:31:03.033Z,14.30
2023-06-11T03:32:02.791Z,14.30
2023-06-11T03:33:03.242Z,14.30
2023-06-11T03:34:02.980Z,14.30
2023-06-11T03:35:02.748Z,14.30
2023-06-11T03:36:02.815Z,14.30
2023-06-11T03:37:02.864Z,14.30
2023-06-11T03:38:03.053Z,14.30
2023-06-11T03:39:02.619Z,14.30
2023-06-11T03:40:03.350Z,14.30
2023-06-11T03:41:03.353Z,14.30
2023-06-11T03:42:03.515Z,14.40
2023-06-11T03:43:03.142Z,14.40
2023-06-11T03:44:02.751Z,14.40
2023-06-11T03:45:02.785Z,14.50
2023-06-11T03:46:02.828Z,14.50
2023-06-11T03:47:02.955Z,14.50
2023-06-11T03:48:03.092Z,14.60
2023-06-11T03:49:03.273Z,14.60
2023-06-11T03:50:02.971Z,14.70
2023-06-11T03:51:02.725Z,14.80
2023-06-11T03:52:03.354Z,14.80
2023-06-11T03:53:03.164Z,14.90
2023-06-11T03:54:02.795Z,15.00
2023-06-11T03:55:02.803Z,15.10
2023-06-11T03:56:03.624Z,15.10
2023-06-11T03:57:03.138Z,15.30
2023-06-11T03:58:03.110Z,15.40
2023-06-11T03:59:03.240Z,15.50
2023-06-11T04:00:03.020Z,15.60
2023-06-11T04:01:02.693Z,15.70
2023-06-11T04:02:03.339Z,15.80
2023-06-11T04:03:03.224Z,15.90
2023-06-11T04:04:03.119Z,16.00
2023-06-11T04:05:02.809Z,16.20
2023-06-11T04:06:03.419Z,16.30
2023-06-11T04:07:03.019Z,16.40
2023-06-11T04:08:03.573Z,16.50
2023-06-11T04:09:02.640Z,16.60
2023-06-11T04:10:03.254Z,16.70
2023-06-11T04:11:03.486Z,16.80
2023-06-11T04:12:02.672Z,17.00
2023-06-11T04:13:03.331Z,17.10
2023-06-11T04:14:02.985Z,17.20
2023-06-11T04:15:03.589Z,17.30
2023-06-11T04:16:05.949Z,17.40
2023-06-11T04:17:02.919Z,17.50
2023-06-11T04:18:03.702Z,17.70
2023-06-11T04:19:02.925Z,17.80
2023-06-11T04:20:03.193Z,17.90
2023-06-11T04:21:02.958Z,18.00
2023-06-11T04:22:03.453Z,18.10
2023-06-11T04:23:03.529Z,18.20
2023-06-11T04:24:03.750Z,18.30
2023-06-11T04:25:03.615Z,18.50
2023-06-11T04:26:03.069Z,18.60
2023-06-11T04:27:02.755Z,18.70
2023-06-11T04:28:02.686Z,18.80
2023-06-11T04:29:03.299Z,18.90
2023-06-11T04:30:03.268Z,19.00
2023-06-11T04:31:03.540Z,19.10
2023-06-11T04:32:03.219Z,19.30
2023-06-11T04:33:02.806Z,19.40
2023-06-11T04:34:02.858Z,19.50
2023-06-11T04:35:02.686Z,19.60
2023-06-11T04:36:03.486Z,19.70
2023-06-11T04:37:03.245Z,19.80
2023-06-11T04:38:03.019Z,19.90
2023-06-11T04:39:03.672Z,20.00
2023-06-11T04:40:03.150Z,20.10
2023-06-11T04:41:03.511Z,20.30
2023-06-11T04:42:03.697Z,20.40
2023-06-11T04:43:03.197Z,20.40
2023-06-11T04:44:03.371Z,20.60
2023-06-11T04:45:02.889Z,20.60
2023-06-11T04:46:03.494Z,20.80
2023-06-11T04:47:03.323Z,20.90
2023-06-11T04:48:03.085Z,21.00
2023-06-11T04:49:03.167Z,21.10
2023-06-11T04:50:03.627Z,21.20
2023-06-11T04:51:03.161Z,21.30
2023-06-11T04:52:03.201Z,21.30
2023-06-11T04:53:03.265Z,21.40
2023-06-11T04:54:03.376Z,21.50
2023-06-11T04:55:03.287Z,21.60
2023-06-11T04:56:05.200Z,21.70
2023-06-11T04:57:03.070Z,21.80
2023-06-11T04:58:02.781Z,21.90
2023-06-11T04:59:03.309Z,22.00
2023-06-11T05:00:03.446Z,22.10
2023-06-11T05:01:03.480Z,22.10
2023-06-11T05:02:03.322Z,22.20
2023-06-11T05:03:03.050Z,22.30
2023-06-11T05:04:03.554Z,22.40
2023-06-11T05:05:03.554Z,22.50
2023-06-11T05:06:03.694Z,22.60
2023-06-11T05:07:03.311Z,22.70
2023-06-11T05:08:03.171Z,22.80
2023-06-11T05:09:03.115Z,22.90
2023-06-11T05:10:02.979Z,23.00
2023-06-11T05:11:03.165Z,23.10
2023-06-11T05:12:02.695Z,23.20
2023-06-11T05:13:03.494Z,23.20
2023-06-11T05:14:03.106Z,23.30
2023-06-11T05:15:02.693Z,23.40
2023-06-11T05:16:03.411Z,23.50
2023-06-11T05:17:03.219Z,23.50
2023-06-11T05:18:02.917Z,23.60
2023-06-11T05:19:03.280Z,23.70
2023-06-11T05:20:03.286Z,23.70
2023-06-11T05:21:03.101Z,23.80
2023-06-11T05:22:03.559Z,23.80
2023-06-11T05:23:03.184Z,23.80
2023-06-11T05:24:03.863Z,23.90
2023-06-11T05:25:03.490Z,23.90
2023-06-11T05:26:03.062Z,24.00
2023-06-11T05:27:03.271Z,24.00
2023-06-11T05:28:03.461Z,24.00
2023-06-11T05:29:03.512Z,24.10
2023-06-11T05:30:03.130Z,24.20
2023-06-11T05:31:03.301Z,24.20
2023-06-11T05:32:02.825Z,24.20
2023-06-11T05:33:03.672Z,24.30
2023-06-11T05:34:02.970Z,24.30
2023-06-11T05:35:03.708Z,24.40
2023-06-11T05:36:02.896Z,24.40
2023-06-11T05:37:03.146Z,24.50
2023-06-11T05:38:02.794Z,24.50
2023-06-11T05:39:03.603Z,24.60
2023-06-11T05:40:03.352Z,24.60
2023-06-11T05:41:03.028Z,24.70
2023-06-11T05:42:03.125Z,24.70
2023-06-11T05:43:02.757Z,24.80
2023-06-11T05:44:03.513Z,24.80
2023-06-11T05:45:03.612Z,24.90
2023-06-11T05:46:03.241Z,24.90
2023-06-11T05:47:02.920Z,25.00
2023-06-11T05:48:03.228Z,25.00
2023-06-11T05:49:03.442Z,25.10
2023-06-11T05:50:03.951Z,25.20
2023-06-11T05:51:03.334Z,25.30
2023-06-11T05:52:03.475Z,25.30
2023-06-11T05:53:02.979Z,25.40
2023-06-11T05:54:02.664Z,25.50
2023-06-11T05:55:03.333Z,25.60
2023-06-11T05:56:03.459Z,25.70
2023-06-11T05:57:03.138Z,25.70
2023-06-11T05:58:03.120Z,25.80
2023-06-11T05:59:02.966Z,25.90
2023-06-11T06:00:03.099Z,25.90
2023-06-11T06:01:02.992Z,26.00
2023-06-11T06:02:02.844Z,26.00
2023-06-11T06:03:02.886Z,26.00
2023-06-11T06:04:03.573Z,26.10
2023-06-11T06:05:02.901Z,26.10
2023-06-11T06:06:02.772Z,26.20
2023-06-11T06:07:02.767Z,26.20
2023-06-11T06:08:03.338Z,26.20
2023-06-11T06:09:03.124Z,26.30
2023-06-11T06:10:02.778Z,26.40
2023-06-11T06:11:03.614Z,26.40
2023-06-11T06:12:03.588Z,26.50
2023-06-11T06:13:02.838Z,26.50
2023-06-11T06:14:02.854Z,26.50
2023-06-11T06:15:09.032Z,26.60
2023-06-11T06:16:03.264Z,26.60
2023-06-11T06:17:03.225Z,26.60
2023-06-11T06:18:02.892Z,26.60
2023-06-11T06:19:03.723Z,26.70
2023-06-11T06:20:03.219Z,26.70
2023-06-11T06:21:02.791Z,26.80
2023-06-11T06:22:02.849Z,26.80
2023-06-11T06:23:03.541Z,26.90
2023-06-11T06:24:03.315Z,26.90
2023-06-11T06:25:03.153Z,26.90
2023-06-11T06:26:02.829Z,27.00
2023-06-11T06:27:03.556Z,27.00
2023-06-11T06:28:03.149Z,27.10
2023-06-11T06:29:02.799Z,27.10
2023-06-11T06:30:03.620Z,27.20
2023-06-11T06:31:03.304Z,27.20
2023-06-11T06:32:03.445Z,27.30
2023-06-11T06:33:02.704Z,27.30
2023-06-11T06:34:02.655Z,27.30
2023-06-11T06:35:03.490Z,27.30
2023-06-11T06:36:02.657Z,27.30
2023-06-11T06:37:03.296Z,27.30
2023-06-11T06:38:03.448Z,27.30
2023-06-11T06:39:03.204Z,27.40
2023-06-11T06:40:03.275Z,27.40
2023-06-11T06:41:02.855Z,27.40
2023-06-11T06:42:02.920Z,27.50
2023-06-11T06:43:03.119Z,27.50
2023-06-11T06:44:02.810Z,27.50
2023-06-11T06:45:03.053Z,27.50
2023-06-11T06:46:03.093Z,27.50
2023-06-11T06:47:03.267Z,27.50
2023-06-11T06:48:03.505Z,27.50
2023-06-11T06:49:02.777Z,27.60
2023-06-11T06:50:02.821Z,27.60
2023-06-11T06:51:03.537Z,27.60
2023-06-11T06:52:03.147Z,27.60
2023-06-11T06:53:02.878Z,27.60
2023-06-11T06:54:03.028Z,27.60
2023-06-11T06:55:03.295Z,27.60
2023-06-11T06:56:02.537Z,27.60
2023-06-11T06:57:03.089Z,27.70
2023-06-11T06:58:03.101Z,27.70
2023-06-11T06:59:03.444Z,27.70
2023-06-11T07:00:03.260Z,27.70
2023-06-11T07:01:03.311Z,27.80
2023-06-11T07:02:02.806Z,27.80
2023-06-11T07:03:03.403Z,27.80
2023-06-11T07:04:03.163Z,27.80
2023-06-11T07:05:02.806Z,27.80
2023-06-11T07:06:02.785Z,27.80
2023-06-11T07:07:03.258Z,27.80
2023-06-11T07:08:03.395Z,27.90
2023-06-11T07:09:03.159Z,27.90
2023-06-11T07:10:02.790Z,27.90
2023-06-11T07:11:03.653Z,27.90
2023-06-11T07:12:02.610Z,27.90
2023-06-11T07:13:03.197Z,27.90
2023-06-11T07:14:02.860Z,27.90
2023-06-11T07:15:03.555Z,27.90
2023-06-11T07:16:03.406Z,27.90
2023-06-11T07:17:02.764Z,27.90
2023-06-11T07:18:03.274Z,27.90
2023-06-11T07:19:02.956Z,27.90
2023-06-11T07:20:02.686Z,27.90
2023-06-11T07:21:03.597Z,27.90
2023-06-11T07:22:02.777Z,27.80
2023-06-11T07:23:03.152Z,27.80
2023-06-11T07:24:02.875Z,27.70
2023-06-11T07:25:03.581Z,27.70
2023-06-11T07:26:03.550Z,27.60
2023-06-11T07:27:09.055Z,27.60
2023-06-11T07:28:02.840Z,27.50
2023-06-11T07:29:03.319Z,27.50
2023-06-11T07:30:03.430Z,27.40
2023-06-11T07:31:03.035Z,27.40
2023-06-11T07:32:02.750Z,27.40
2023-06-11T07:33:03.446Z,27.30
2023-06-11T07:34:03.293Z,27.20
2023-06-11T07:35:02.874Z,27.10
2023-06-11T07:36:03.546Z,27.00
2023-06-11T07:37:03.612Z,26.90
2023-06-11T07:38:03.170Z,26.80
2023-06-11T07:39:03.231Z,26.70
2023-06-11T07:40:02.777Z,26.70
2023-06-11T07:41:02.916Z,26.50
2023-06-11T07:42:03.526Z,26.40
2023-06-11T07:43:03.573Z,26.40
2023-06-11T07:44:02.721Z,26.30
2023-06-11T07:45:03.286Z,26.20
2023-06-11T07:46:02.950Z,26.10
2023-06-11T07:47:03.681Z,26.00
2023-06-11T07:48:03.564Z,26.00
2023-06-11T07:49:03.297Z,25.90
2023-06-11T07:50:03.539Z,25.80
2023-06-11T07:51:03.399Z,25.80
2023-06-11T07:52:03.463Z,25.80
2023-06-11T07:53:03.102Z,25.80
2023-06-11T07:54:02.876Z,25.80
2023-06-11T07:55:03.506Z,25.90
2023-06-11T07:56:03.017Z,25.90
2023-06-11T07:57:03.124Z,25.90
2023-06-11T07:58:03.710Z,26.00
2023-06-11T07:59:03.211Z,26.00
2023-06-11T08:00:03.188Z,25.90
2023-06-11T08:01:03.445Z,25.90
2023-06-11T08:02:03.116Z,25.90
2023-06-11T08:03:02.799Z,25.90
2023-06-11T08:04:02.747Z,25.90
2023-06-11T08:05:02.767Z,25.90
2023-06-11T08:06:02.806Z,25.90
2023-06-11T08:07:02.692Z,25.90
2023-06-11T08:08:03.456Z,25.90
2023-06-11T08:09:03.179Z,26.00
2023-06-11T08:10:02.868Z,26.00
2023-06-11T08:11:03.380Z,26.00
2023-06-11T08:12:03.085Z,26.00
2023-06-11T08:13:02.760Z,26.10
2023-06-11T08:14:03.281Z,26.10
2023-06-11T08:15:02.930Z,26.10
2023-06-11T08:16:03.469Z,26.10
2023-06-11T08:17:03.232Z,26.10
2023-06-11T08:18:03.007Z,26.10
2023-06-11T08:19:02.752Z,26.10
2023-06-11T08:20:03.347Z,26.10
2023-06-11T08:21:03.295Z,26.00
2023-06-11T08:22:02.894Z,26.10
2023-06-11T08:23:03.568Z,26.10
2023-06-11T08:24:03.393Z,26.10
2023-06-11T08:25:02.797Z,26.10
2023-06-11T08:26:02.732Z,26.20
2023-06-11T08:27:02.778Z,26.20
2023-06-11T08:28:03.462Z,26.20
2023-06-11T08:29:03.182Z,26.20
2023-06-11T08:30:02.773Z,26.30
2023-06-11T08:31:02.768Z,26.30
2023-06-11T08:32:03.425Z,26.30
2023-06-11T08:33:03.544Z,26.30
2023-06-11T08:34:03.584Z,26.40
2023-06-11T08:35:03.575Z,26.30
2023-06-11T08:36:02.777Z,26.30
2023-06-11T08:37:03.353Z,26.30
2023-06-11T08:38:02.940Z,26.30
2023-06-11T08:39:02.988Z,26.20
2023-06-11T08:40:03.644Z,26.20
2023-06-11T08:41:03.357Z,26.20
2023-06-11T08:42:02.886Z,26.10
2023-06-11T08:43:03.595Z,26.10
2023-06-11T08:44:02.831Z,26.00
2023-06-11T08:45:02.899Z,26.00
2023-06-11T08:46:02.926Z,26.00
2023-06-11T08:47:03.055Z,25.90
2023-06-11T08:48:02.627Z,25.90
2023-06-11T08:49:03.523Z,25.90
2023-06-11T08:50:02.713Z,25.90
2023-06-11T08:51:03.123Z,25.80
2023-06-11T08:52:02.770Z,25.80
2023-06-11T08:53:03.446Z,25.80
2023-06-11T08:54:03.272Z,25.80
2023-06-11T08:55:03.077Z,25.80
2023-06-11T08:56:02.650Z,25.80
2023-06-11T08:57:03.388Z,25.80
2023-06-11T08:58:03.011Z,25.80
2023-06-11T08:59:02.756Z,25.80
2023-06-11T09:00:03.386Z,25.80
2023-06-11T09:01:03.059Z,25.80
2023-06-11T09:02:03.010Z,25.90
2023-06-11T09:03:02.686Z,25.90
2023-06-11T09:04:03.471Z,25.90
2023-06-11T09:05:02.657Z,25.90
2023-06-11T09:06:03.175Z,26.00
2023-06-11T09:07:03.169Z,26.00
2023-06-11T09:08:02.834Z,26.00
2023-06-11T09:09:03.493Z,26.00
2023-06-11T09:10:03.282Z,26.00
2023-06-11T09:11:03.129Z,26.00
2023-06-11T09:12:02.792Z,26.00
2023-06-11T09:13:03.403Z,26.00
2023-06-11T09:14:03.041Z,26.00
2023-06-11T09:15:03.377Z,26.00
2023-06-11T09:16:03.046Z,26.10
2023-06-11T09:17:02.771Z,26.00
2023-06-11T09:18:02.978Z,26.00
2023-06-11T09:19:02.839Z,26.00
2023-06-11T09:20:02.906Z,26.10
2023-06-11T09:21:02.968Z,26.00
2023-06-11T09:22:02.785Z,26.10
2023-06-11T09:23:03.426Z,26.10
2023-06-11T09:24:03.129Z,26.10
2023-06-11T09:25:02.776Z,26.00
2023-06-11T09:26:03.448Z,26.10
2023-06-11T09:27:03.293Z,26.10
2023-06-11T09:28:02.905Z,26.10
2023-06-11T09:29:03.459Z,26.10
2023-06-11T09:30:03.518Z,26.10
2023-06-11T09:31:03.099Z,26.20
2023-06-11T09:32:04.579Z,26.20
2023-06-11T09:33:03.410Z,26.20
2023-06-11T09:34:03.446Z,26.30
2023-06-11T09:35:03.413Z,26.30
2023-06-11T09:36:03.553Z,26.30
2023-06-11T09:37:03.062Z,26.30
2023-06-11T09:38:02.811Z,26.30
2023-06-11T09:39:03.489Z,26.40
2023-06-11T09:40:03.228Z,26.30
2023-06-11T09:41:02.844Z,26.30
2023-06-11T09:42:02.906Z,26.30
2023-06-11T09:43:02.618Z,26.30
2023-06-11T09:44:03.389Z,26.30
2023-06-11T09:45:03.178Z,26.30
2023-06-11T09:46:02.835Z,26.20
2023-06-11T09:47:03.718Z,26.20
2023-06-11T09:48:02.942Z,26.20
2023-06-11T09:49:03.088Z,26.20
2023-06-11T09:50:02.622Z,26.20
2023-06-11T09:51:03.346Z,26.20
2023-06-11T09:52:03.193Z,26.20
2023-06-11T09:53:02.875Z,26.20
2023-06-11T09:54:02.945Z,26.20
2023-06-11T09:55:03.604Z,26.10
2023-06-11T09:56:10.837Z,26.20
2023-06-11T09:57:02.861Z,26.20
2023-06-11T09:58:02.646Z,26.20
2023-06-11T09:59:02.896Z,26.20
2023-06-11T10:00:02.812Z,26.30
2023-06-11T10:01:05.711Z,26.30
2023-06-11T10:02:03.061Z,26.30
2023-06-11T10:03:03.184Z,26.30
2023-06-11T10:04:02.956Z,26.20
2023-06-11T10:05:02.847Z,26.20
2023-06-11T10:06:03.582Z,26.20
2023-06-11T10:07:03.360Z,26.20
2023-06-11T10:08:03.026Z,26.10
2023-06-11T10:09:02.870Z,26.10
2023-06-11T10:10:03.392Z,26.10
2023-06-11T10:11:03.139Z,26.10
2023-06-11T10:12:02.844Z,26.10
2023-06-11T10:13:02.843Z,26.10
2023-06-11T10:14:03.401Z,26.10
2023-06-11T10:15:03.044Z,26.10
2023-06-11T10:16:02.687Z,26.10
2023-06-11T10:17:03.706Z,26.10
2023-06-11T10:18:03.266Z,26.10
2023-06-11T10:19:02.876Z,26.20
2023-06-11T10:20:03.524Z,26.20
2023-06-11T10:21:03.226Z,26.20
2023-06-11T10:22:02.942Z,26.20
2023-06-11T10:23:05.479Z,26.20
2023-06-11T10:24:03.459Z,26.20
2023-06-11T10:25:03.102Z,26.10
2023-06-11T10:26:03.142Z,26.10
2023-06-11T10:27:02.769Z,26.10
2023-06-11T10:28:03.244Z,26.00
2023-06-11T10:29:03.794Z,26.00
2023-06-11T10:30:03.064Z,26.00
2023-06-11T10:31:02.723Z,26.00
2023-06-11T10:32:03.541Z,26.00
2023-06-11T10:33:03.423Z,26.00
2023-06-11T10:34:03.000Z,26.00
2023-06-11T10:35:02.986Z,26.00
2023-06-11T10:36:02.671Z,26.00
2023-06-11T10:37:02.653Z,26.00
2023-06-11T10:38:03.244Z,26.00
2023-06-11T10:39:03.085Z,26.10
2023-06-11T10:40:02.609Z,26.10
2023-06-11T10:41:03.457Z,26.10
2023-06-11T10:42:03.394Z,26.10
2023-06-11T10:43:03.170Z,26.20
2023-06-11T10:44:03.183Z,26.20
2023-06-11T10:45:03.039Z,26.20
2023-06-11T10:46:03.362Z,26.20
2023-06-11T10:47:02.953Z,26.20
2023-06-11T10:48:03.215Z,26.20
2023-06-11T10:49:03.164Z,26.30
2023-06-11T10:50:02.783Z,26.30
2023-06-11T10:51:02.997Z,26.30
2023-06-11T10:52:03.650Z,26.30
2023-06-11T10:53:03.825Z,26.30
2023-06-11T10:54:02.870Z,26.40
2023-06-11T10:55:03.507Z,26.40
2023-06-11T10:56:03.534Z,26.40
2023-06-11T10:57:03.527Z,26.40
2023-06-11T10:58:03.184Z,26.40
2023-06-11T10:59:02.772Z,26.40
2023-06-11T11:00:02.665Z,26.40
2023-06-11T11:01:03.342Z,26.40
2023-06-11T11:02:03.228Z,26.40
2023-06-11T11:03:03.563Z,26.40
2023-06-11T11:04:02.994Z,26.40
2023-06-11T11:05:02.704Z,26.40
2023-06-11T11:06:03.354Z,26.40
2023-06-11T11:07:03.047Z,26.40
2023-06-11T11:08:03.662Z,26.40
2023-06-11T11:09:03.234Z,26.40
2023-06-11T11:10:02.954Z,26.40
2023-06-11T11:11:03.155Z,26.40
2023-06-11T11:12:02.762Z,26.50
2023-06-11T11:13:03.459Z,26.50
2023-06-11T11:14:03.174Z,26.50
2023-06-11T11:15:02.840Z,26.50
2023-06-11T11:16:03.025Z,26.50
2023-06-11T11:17:02.849Z,26.50
2023-06-11T11:18:02.964Z,26.50
2023-06-11T11:19:02.771Z,26.60
2023-06-11T11:20:03.342Z,26.50
2023-06-11T11:21:03.150Z,26.50
2023-06-11T11:22:02.807Z,26.50
2023-06-11T11:23:02.745Z,26.50
2023-06-11T11:24:03.473Z,26.50
2023-06-11T11:25:03.561Z,26.50
2023-06-11T11:26:03.566Z,26.50
2023-06-11T11:27:02.719Z,26.50
2023-06-11T11:28:03.411Z,26.60
2023-06-11T11:29:03.017Z,26.60
2023-06-11T11:30:04.242Z,26.60
2023-06-11T11:31:02.624Z,26.60
2023-06-11T11:32:03.226Z,26.60
2023-06-11T11:33:02.970Z,26.70
2023-06-11T11:34:02.694Z,26.70
2023-06-11T11:35:03.446Z,26.70
2023-06-11T11:36:03.319Z,26.70
2023-06-11T11:37:02.835Z,26.70
2023-06-11T11:38:03.444Z,26.70
2023-06-11T11:39:02.815Z,26.70
2023-06-11T11:40:03.351Z,26.70
2023-06-11T11:41:03.030Z,26.70
2023-06-11T11:42:03.290Z,26.70
2023-06-11T11:43:03.514Z,26.70
2023-06-11T11:44:03.190Z,26.70
2023-06-11T11:45:02.904Z,26.70
2023-06-11T11:46:03.559Z,26.70
2023-06-11T11:47:03.306Z,26.60
2023-06-11T11:48:04.731Z,26.60
2023-06-11T11:49:02.914Z,26.70
2023-06-11T11:50:03.562Z,26.70
2023-06-11T11:51:03.108Z,26.60
2023-06-11T11:52:02.674Z,26.70
2023-06-11T11:53:03.338Z,26.60
2023-06-11T11:54:03.952Z,26.60
2023-06-11T11:55:03.406Z,26.70
2023-06-11T11:56:06.153Z,26.70
2023-06-11T11:57:03.169Z,26.70
2023-06-11T11:58:02.779Z,26.70
2023-06-11T11:59:03.486Z,26.70
2023-06-11T12:00:03.075Z,26.70
2023-06-11T12:01:03.211Z,26.80
2023-06-11T12:02:02.946Z,26.80
2023-06-11T12:03:03.758Z,26.80
2023-06-11T12:04:03.593Z,26.80
2023-06-11T12:05:02.704Z,26.80
2023-06-11T12:06:02.921Z,26.80
2023-06-11T12:07:03.075Z,26.90
2023-06-11T12:08:03.046Z,26.90
2023-06-11T12:09:02.702Z,26.90
2023-06-11T12:10:03.928Z,26.90
2023-06-11T12:11:03.248Z,26.90
2023-06-11T12:12:05.848Z,27.00
2023-06-11T12:13:03.520Z,27.00
2023-06-11T12:14:03.068Z,27.00
2023-06-11T12:15:03.169Z,27.00
2023-06-11T12:16:04.748Z,27.10
2023-06-11T12:17:03.685Z,27.10
2023-06-11T12:18:02.930Z,27.10
2023-06-11T12:19:18.937Z,27.10
2023-06-11T12:20:03.345Z,27.10
2023-06-11T12:21:03.036Z,27.20
2023-06-11T12:22:03.126Z,27.20
2023-06-11T12:23:03.392Z,27.20
2023-06-11T12:24:03.641Z,27.20
2023-06-11T12:25:02.875Z,27.20
2023-06-11T12:26:03.183Z,27.20
2023-06-11T12:27:06.725Z,27.20
2023-06-11T12:28:02.741Z,27.20
2023-06-11T12:29:02.722Z,27.30
2023-06-11T12:30:02.890Z,27.30
2023-06-11T12:31:03.001Z,27.30
2023-06-11T12:32:03.215Z,27.30
2023-06-11T12:33:02.902Z,27.40
2023-06-11T12:34:02.773Z,27.40
2023-06-11T12:35:02.858Z,27.30
2023-06-11T12:36:02.925Z,27.30
2023-06-11T12:37:03.601Z,27.30
2023-06-11T12:38:03.663Z,27.30
2023-06-11T12:39:03.349Z,27.30
2023-06-11T12:40:03.268Z,27.30
2023-06-11T12:41:02.759Z,27.40
2023-06-11T12:42:02.764Z,27.40
2023-06-11T12:43:03.380Z,27.40
2023-06-11T12:44:03.072Z,27.40
2023-06-11T12:45:04.406Z,27.50
2023-06-11T12:46:02.739Z,27.50
2023-06-11T12:47:02.985Z,27.50
2023-06-11T12:48:03.107Z,27.50
2023-06-11T12:49:02.777Z,27.50
2023-06-11T12:50:03.031Z,27.50
2023-06-11T12:51:03.733Z,27.50
2023-06-11T12:52:02.952Z,27.50